sensor_id;sensor_type;location;lat;lon;timestamp;pressure;altitude;pressure_sealevel;temperature;humidity
52441;BME280;39611;46.062;8.950;2023-05-22T07:21:54;96473.75;;;16.17;100.00
52441;BME280;39611;46.062;8.950;2023-05-22T07:24:20;96475.66;;;16.16;100.00
52441;BME280;39611;46.062;8.950;2023-05-22T07:26:47;96481.00;;;16.25;100.00
52441;BME280;39611;46.062;8.950;2023-05-22T07:29:14;96489.72;;;16.40;100.00
52441;BME280;39611;46.062;8.950;2023-05-22T07:31:41;96487.06;;;16.48;100.00
52441;BME280;39611;46.062;8.950;2023-05-22T07:34:07;96484.72;;;16.64;100.00
52441;BME280;39611;46.062;8.950;2023-05-22T07:36:34;96481.16;;;16.77;100.00
52441;BME280;39611;46.062;8.950;2023-05-22T07:39:01;96463.72;;;16.89;100.00
52441;BME280;39611;46.062;8.950;2023-05-22T07:41:27;96468.31;;;16.97;100.00
52441;BME280;39611;46.062;8.950;2023-05-22T07:43:54;96455.25;;;17.04;100.00
52441;BME280;39611;46.062;8.950;2023-05-22T07:46:20;96455.56;;;17.11;100.00
52441;BME280;39611;46.062;8.950;2023-05-22T07:48:47;96449.25;;;17.24;100.00
52441;BME280;39611;46.062;8.950;2023-05-22T07:51:14;96453.97;;;17.28;100.00
52441;BME280;39611;46.062;8.950;2023-05-22T07:53:40;96441.72;;;17.27;100.00
52441;BME280;39611;46.062;8.950;2023-05-22T07:56:06;96444.22;;;17.32;100.00
52441;BME280;39611;46.062;8.950;2023-05-22T07:58:33;96437.78;;;17.33;100.00
52441;BME280;39611;46.062;8.950;2023-05-22T08:00:59;96433.69;;;17.44;100.00
52441;BME280;39611;46.062;8.950;2023-05-22T08:03:27;96445.94;;;17.45;100.00
52441;BME280;39611;46.062;8.950;2023-05-22T08:05:53;96444.03;;;17.45;100.00
52441;BME280;39611;46.062;8.950;2023-05-22T08:08:20;96450.81;;;17.52;100.00
52441;BME280;39611;46.062;8.950;2023-05-22T08:10:46;96441.97;;;17.60;100.00
52441;BME280;39611;46.062;8.950;2023-05-22T08:13:29;96437.75;;;17.59;100.00
52441;BME280;39611;46.062;8.950;2023-05-22T08:15:55;96439.78;;;17.62;100.00
52441;BME280;39611;46.062;8.950;2023-05-22T08:18:26;96435.22;;;17.62;100.00
52441;BME280;39611;46.062;8.950;2023-05-22T08:20:54;96434.44;;;17.62;100.00
52441;BME280;39611;46.062;8.950;2023-05-22T08:23:21;96431.59;;;17.58;100.00
52441;BME280;39611;46.062;8.950;2023-05-22T08:25:47;96429.56;;;17.55;100.00
52441;BME280;39611;46.062;8.950;2023-05-22T08:28:15;96431.31;;;17.51;100.00
52441;BME280;39611;46.062;8.950;2023-05-22T08:30:41;96420.78;;;17.46;100.00
52441;BME280;39611;46.062;8.950;2023-05-22T08:33:08;96417.00;;;17.47;100.00
52441;BME280;39611;46.062;8.950;2023-05-22T08:35:34;96413.38;;;17.43;100.00
52441;BME280;39611;46.062;8.950;2023-05-22T08:38:01;96411.34;;;17.40;100.00
52441;BME280;39611;46.062;8.950;2023-05-22T08:40:34;96415.44;;;17.46;100.00
52441;BME280;39611;46.062;8.950;2023-05-22T08:43:03;96407.41;;;17.46;100.00
52441;BME280;39611;46.062;8.950;2023-05-22T08:45:33;96402.34;;;17.53;100.00
52441;BME280;39611;46.062;8.950;2023-05-22T08:48:03;96397.00;;;17.53;100.00
52441;BME280;39611;46.062;8.950;2023-05-22T08:50:31;96402.16;;;17.58;100.00
52441;BME280;39611;46.062;8.950;2023-05-22T08:53:00;96396.78;;;17.76;100.00
52441;BME280;39611;46.062;8.950;2023-05-22T08:55:29;96393.44;;;17.79;100.00
52441;BME280;39611;46.062;8.950;2023-05-22T08:57:56;96398.63;;;17.93;100.00
52441;BME280;39611;46.062;8.950;2023-05-22T09:00:22;96388.47;;;18.07;100.00
52441;BME280;39611;46.062;8.950;2023-05-22T09:02:49;96392.16;;;18.23;100.00
52441;BME280;39611;46.062;8.950;2023-05-22T09:05:18;96385.91;;;18.40;100.00
52441;BME280;39611;46.062;8.950;2023-05-22T09:07:44;96388.72;;;18.44;100.00
52441;BME280;39611;46.062;8.950;2023-05-22T09:10:11;96380.22;;;18.42;100.00
52441;BME280;39611;46.062;8.950;2023-05-22T09:12:37;96378.94;;;18.48;100.00
52441;BME280;39611;46.062;8.950;2023-05-22T09:15:08;96378.66;;;18.62;100.00
52441;BME280;39611;46.062;8.950;2023-05-22T09:17:39;96373.47;;;18.65;100.00
52441;BME280;39611;46.062;8.950;2023-05-22T09:20:07;96377.81;;;18.70;100.00
52441;BME280;39611;46.062;8.950;2023-05-22T09:22:36;96369.63;;;18.75;100.00
52441;BME280;39611;46.062;8.950;2023-05-22T09:25:06;96364.78;;;18.68;100.00
52441;BME280;39611;46.062;8.950;2023-05-22T09:27:33;96364.50;;;18.61;100.00
52441;BME280;39611;46.062;8.950;2023-05-22T09:29:59;96364.63;;;18.65;100.00
52441;BME280;39611;46.062;8.950;2023-05-22T09:32:29;96364.63;;;18.65;100.00
52441;BME280;39611;46.062;8.950;2023-05-22T09:35:02;96363.75;;;18.73;100.00
52441;BME280;39611;46.062;8.950;2023-05-22T09:37:33;96362.97;;;18.81;100.00
52441;BME280;39611;46.062;8.950;2023-05-22T09:40:05;96359.00;;;18.99;100.00
52441;BME280;39611;46.062;8.950;2023-05-22T09:42:35;96360.81;;;19.08;100.00
52441;BME280;39611;46.062;8.950;2023-05-22T09:45:06;96367.78;;;19.21;100.00
52441;BME280;39611;46.062;8.950;2023-05-22T09:47:34;96363.78;;;19.27;100.00
52441;BME280;39611;46.062;8.950;2023-05-22T09:50:03;96357.78;;;19.30;100.00
52441;BME280;39611;46.062;8.950;2023-05-22T09:52:36;96365.59;;;19.35;100.00
52441;BME280;39611;46.062;8.950;2023-05-22T09:55:06;96361.13;;;19.39;100.00
52441;BME280;39611;46.062;8.950;2023-05-22T09:57:40;96354.88;;;19.35;100.00
52441;BME280;39611;46.062;8.950;2023-05-22T10:00:12;96363.56;;;19.32;100.00
52441;BME280;39611;46.062;8.950;2023-05-22T10:02:57;96364.22;;;19.29;100.00
52441;BME280;39611;46.062;8.950;2023-05-22T10:05:29;96364.22;;;19.29;100.00
52441;BME280;39611;46.062;8.950;2023-05-22T10:08:02;96366.91;;;19.29;100.00
52441;BME280;39611;46.062;8.950;2023-05-22T10:10:31;96361.53;;;19.29;100.00
52441;BME280;39611;46.062;8.950;2023-05-22T10:13:04;96365.22;;;19.25;100.00
52441;BME280;39611;46.062;8.950;2023-05-22T10:15:31;96364.44;;;19.24;100.00
52441;BME280;39611;46.062;8.950;2023-05-22T10:17:59;96364.03;;;19.34;100.00
52441;BME280;39611;46.062;8.950;2023-05-22T10:20:27;96357.97;;;19.37;100.00
52441;BME280;39611;46.062;8.950;2023-05-22T10:22:55;96358.91;;;19.41;100.00
52441;BME280;39611;46.062;8.950;2023-05-22T10:25:22;96358.22;;;19.45;100.00
52441;BME280;39611;46.062;8.950;2023-05-22T10:27:51;96350.97;;;19.45;100.00
52441;BME280;39611;46.062;8.950;2023-05-22T10:30:48;96359.91;;;19.49;100.00
52441;BME280;39611;46.062;8.950;2023-05-22T10:33:23;96362.94;;;19.60;100.00
52441;BME280;39611;46.062;8.950;2023-05-22T10:40:53;96352.78;;;19.65;100.00
52441;BME280;39611;46.062;8.950;2023-05-22T10:43:21;96354.69;;;19.65;100.00
52441;BME280;39611;46.062;8.950;2023-05-22T10:45:48;96356.72;;;19.68;100.00
52441;BME280;39611;46.062;8.950;2023-05-22T10:48:20;96354.50;;;19.70;100.00
52441;BME280;39611;46.062;8.950;2023-05-22T10:50:50;96354.72;;;19.77;100.00
52441;BME280;39611;46.062;8.950;2023-05-22T10:55:52;96351.81;;;19.82;100.00
52441;BME280;39611;46.062;8.950;2023-05-22T10:58:32;96354.94;;;19.97;100.00
52441;BME280;39611;46.062;8.950;2023-05-22T11:01:12;96351.13;;;20.10;100.00
52441;BME280;39611;46.062;8.950;2023-05-22T11:03:59;96339.72;;;20.13;100.00
52441;BME280;39611;46.062;8.950;2023-05-22T11:08:56;96340.38;;;20.22;100.00
52441;BME280;39611;46.062;8.950;2023-05-22T11:11:26;96339.25;;;20.23;95.99
52441;BME280;39611;46.062;8.950;2023-05-22T11:14:00;96335.66;;;20.32;91.54
52441;BME280;39611;46.062;8.950;2023-05-22T11:16:32;96325.34;;;20.34;91.29
52441;BME280;39611;46.062;8.950;2023-05-22T11:19:05;96325.91;;;20.39;93.55
52441;BME280;39611;46.062;8.950;2023-05-22T11:21:49;96318.59;;;20.52;100.00
52441;BME280;39611;46.062;8.950;2023-05-22T11:24:16;96316.38;;;20.54;100.00
52441;BME280;39611;46.062;8.950;2023-05-22T11:27:05;96317.94;;;20.55;99.53
52441;BME280;39611;46.062;8.950;2023-05-22T11:29:32;96316.13;;;20.59;94.52
52441;BME280;39611;46.062;8.950;2023-05-22T11:32:00;96318.41;;;20.57;100.00
52441;BME280;39611;46.062;8.950;2023-05-22T11:34:27;96316.56;;;20.61;100.00
52441;BME280;39611;46.062;8.950;2023-05-22T11:36:57;96313.41;;;20.71;98.78
52441;BME280;39611;46.062;8.950;2023-05-22T11:39:25;96305.00;;;20.73;100.00
52441;BME280;39611;46.062;8.950;2023-05-22T11:41:52;96313.13;;;20.89;98.84
52441;BME280;39611;46.062;8.950;2023-05-22T11:44:18;96315.13;;;20.92;90.26
52441;BME280;39611;46.062;8.950;2023-05-22T11:46:45;96314.50;;;20.99;91.19
52441;BME280;39611;46.062;8.950;2023-05-22T11:49:11;96314.38;;;21.07;79.68
52441;BME280;39611;46.062;8.950;2023-05-22T11:51:38;96303.63;;;21.07;87.51
52441;BME280;39611;46.062;8.950;2023-05-22T11:54:06;96301.88;;;20.99;88.23
52441;BME280;39611;46.062;8.950;2023-05-22T11:56:33;96300.28;;;20.98;94.05
52441;BME280;39611;46.062;8.950;2023-05-22T11:58:59;96288.97;;;21.21;98.47
52441;BME280;39611;46.062;8.950;2023-05-22T12:01:25;96292.34;;;21.17;100.00
52441;BME280;39611;46.062;8.950;2023-05-22T12:03:52;96291.66;;;21.21;100.00
52441;BME280;39611;46.062;8.950;2023-05-22T12:06:19;96283.34;;;21.42;91.49
52441;BME280;39611;46.062;8.950;2023-05-22T12:08:46;96288.13;;;21.32;88.08
52441;BME280;39611;46.062;8.950;2023-05-22T12:11:12;96290.50;;;21.22;96.84
52441;BME280;39611;46.062;8.950;2023-05-22T12:13:39;96284.63;;;21.16;94.90
52441;BME280;39611;46.062;8.950;2023-05-22T12:16:19;96282.88;;;21.08;93.34
52441;BME280;39611;46.062;8.950;2023-05-22T12:18:51;96283.13;;;21.03;100.00
52441;BME280;39611;46.062;8.950;2023-05-22T12:21:21;96283.81;;;21.00;100.00
52441;BME280;39611;46.062;8.950;2023-05-22T12:23:50;96276.78;;;20.95;91.71
52441;BME280;39611;46.062;8.950;2023-05-22T12:26:18;96275.38;;;21.01;100.00
52441;BME280;39611;46.062;8.950;2023-05-22T12:28:44;96273.16;;;21.03;100.00
52441;BME280;39611;46.062;8.950;2023-05-22T12:31:19;96276.34;;;21.09;99.42
52441;BME280;39611;46.062;8.950;2023-05-22T12:33:47;96270.22;;;21.24;97.21
52441;BME280;39611;46.062;8.950;2023-05-22T12:36:13;96266.84;;;21.27;93.67
52441;BME280;39611;46.062;8.950;2023-05-22T12:38:40;96278.13;;;21.33;95.66
52441;BME280;39611;46.062;8.950;2023-05-22T12:41:06;96269.69;;;21.34;100.00
52441;BME280;39611;46.062;8.950;2023-05-22T12:43:33;96276.28;;;21.37;97.61
52441;BME280;39611;46.062;8.950;2023-05-22T12:45:59;96267.13;;;21.38;97.52
52441;BME280;39611;46.062;8.950;2023-05-22T12:48:28;96270.06;;;21.33;88.21
52441;BME280;39611;46.062;8.950;2023-05-22T12:50:54;96267.22;;;21.42;88.74
52441;BME280;39611;46.062;8.950;2023-05-22T12:53:21;96269.19;;;21.45;92.81
52441;BME280;39611;46.062;8.950;2023-05-22T12:55:47;96271.56;;;21.46;91.47
52441;BME280;39611;46.062;8.950;2023-05-22T12:58:13;96266.44;;;21.57;92.31
52441;BME280;39611;46.062;8.950;2023-05-22T13:00:40;96267.81;;;21.67;80.57
52441;BME280;39611;46.062;8.950;2023-05-22T13:03:07;96256.56;;;21.80;76.51
52441;BME280;39611;46.062;8.950;2023-05-22T13:05:34;96264.38;;;21.86;80.56
52441;BME280;39611;46.062;8.950;2023-05-22T13:08:01;96262.28;;;21.79;78.69
52441;BME280;39611;46.062;8.950;2023-05-22T13:10:27;96253.59;;;21.86;81.65
52441;BME280;39611;46.062;8.950;2023-05-22T13:12:54;96254.47;;;21.90;76.97
52441;BME280;39611;46.062;8.950;2023-05-22T13:15:21;96255.25;;;21.90;77.03
52441;BME280;39611;46.062;8.950;2023-05-22T13:17:47;96247.34;;;21.97;60.56
52441;BME280;39611;46.062;8.950;2023-05-22T13:20:14;96248.63;;;22.03;64.96
52441;BME280;39611;46.062;8.950;2023-05-22T13:22:40;96246.91;;;21.95;72.92
52441;BME280;39611;46.062;8.950;2023-05-22T13:25:07;96245.06;;;21.99;72.84
52441;BME280;39611;46.062;8.950;2023-05-22T13:27:34;96241.03;;;21.90;70.27
52441;BME280;39611;46.062;8.950;2023-05-22T13:30:00;96235.59;;;22.06;69.12
52441;BME280;39611;46.062;8.950;2023-05-22T13:32:27;96232.28;;;21.96;80.67
52441;BME280;39611;46.062;8.950;2023-05-22T13:34:53;96234.44;;;21.87;81.49
52441;BME280;39611;46.062;8.950;2023-05-22T13:37:20;96233.72;;;21.90;74.24
52441;BME280;39611;46.062;8.950;2023-05-22T13:39:46;96235.25;;;21.91;76.50
52441;BME280;39611;46.062;8.950;2023-05-22T13:42:13;96236.91;;;21.96;77.79
52441;BME280;39611;46.062;8.950;2023-05-22T13:44:39;96227.94;;;22.08;79.06
52441;BME280;39611;46.062;8.950;2023-05-22T13:47:06;96232.47;;;22.03;87.87
52441;BME280;39611;46.062;8.950;2023-05-22T13:49:32;96232.78;;;22.02;84.87
52441;BME280;39611;46.062;8.950;2023-05-22T13:51:59;96226.34;;;22.07;81.88
52441;BME280;39611;46.062;8.950;2023-05-22T13:54:26;96227.63;;;22.13;75.63
52441;BME280;39611;46.062;8.950;2023-05-22T13:56:53;96220.25;;;22.10;82.30
52441;BME280;39611;46.062;8.950;2023-05-22T13:59:19;96213.59;;;22.03;82.90
52441;BME280;39611;46.062;8.950;2023-05-22T14:01:46;96221.84;;;22.11;66.57
52441;BME280;39611;46.062;8.950;2023-05-22T14:04:12;96226.34;;;22.07;68.30
52441;BME280;39611;46.062;8.950;2023-05-22T14:06:39;96222.63;;;22.11;69.34
52441;BME280;39611;46.062;8.950;2023-05-22T14:09:05;96221.97;;;22.18;67.55
52441;BME280;39611;46.062;8.950;2023-05-22T14:11:34;96219.72;;;22.20;71.90
52441;BME280;39611;46.062;8.950;2023-05-22T14:14:00;96217.38;;;22.18;71.70
52441;BME280;39611;46.062;8.950;2023-05-22T14:16:27;96213.63;;;22.23;67.54
52441;BME280;39611;46.062;8.950;2023-05-22T14:18:53;96202.84;;;22.23;66.67
52441;BME280;39611;46.062;8.950;2023-05-22T14:21:20;96206.75;;;22.25;64.23
52441;BME280;39611;46.062;8.950;2023-05-22T14:23:46;96210.03;;;22.35;58.44
52441;BME280;39611;46.062;8.950;2023-05-22T14:26:13;96209.25;;;22.34;62.86
52441;BME280;39611;46.062;8.950;2023-05-22T14:28:40;96212.06;;;22.22;60.25
52441;BME280;39611;46.062;8.950;2023-05-22T14:31:07;96214.44;;;22.23;61.95
52441;BME280;39611;46.062;8.950;2023-05-22T14:33:34;96202.44;;;22.21;70.51
52441;BME280;39611;46.062;8.950;2023-05-22T14:36:01;96200.78;;;22.36;66.73
52441;BME280;39611;46.062;8.950;2023-05-22T14:38:30;96202.91;;;22.46;66.92
52441;BME280;39611;46.062;8.950;2023-05-22T14:40:59;96203.28;;;22.44;71.77
52441;BME280;39611;46.062;8.950;2023-05-22T14:43:26;96204.00;;;22.41;67.35
52441;BME280;39611;46.062;8.950;2023-05-22T14:45:53;96200.09;;;22.39;66.75
52441;BME280;39611;46.062;8.950;2023-05-22T14:48:21;96207.66;;;22.33;65.97
52441;BME280;39611;46.062;8.950;2023-05-22T14:50:51;96196.78;;;22.26;72.28
52441;BME280;39611;46.062;8.950;2023-05-22T14:53:21;96198.31;;;22.27;65.77
52441;BME280;39611;46.062;8.950;2023-05-22T14:55:48;96193.56;;;22.20;68.74
52441;BME280;39611;46.062;8.950;2023-05-22T14:58:14;96196.44;;;22.12;71.46
52441;BME280;39611;46.062;8.950;2023-05-22T15:00:41;96193.59;;;22.04;69.02
52441;BME280;39611;46.062;8.950;2023-05-22T15:03:12;96183.13;;;21.99;69.59
52441;BME280;39611;46.062;8.950;2023-05-22T15:05:38;96192.69;;;21.97;70.50
52441;BME280;39611;46.062;8.950;2023-05-22T15:08:05;96184.53;;;21.93;67.87
52441;BME280;39611;46.062;8.950;2023-05-22T15:10:32;96194.88;;;21.91;67.92
52441;BME280;39611;46.062;8.950;2023-05-22T15:12:58;96186.25;;;21.82;73.06
52441;BME280;39611;46.062;8.950;2023-05-22T15:15:25;96191.91;;;21.77;77.16
52441;BME280;39611;46.062;8.950;2023-05-22T15:17:51;96190.19;;;21.69;86.04
52441;BME280;39611;46.062;8.950;2023-05-22T15:20:18;96173.28;;;21.52;97.13
52441;BME280;39611;46.062;8.950;2023-05-22T15:22:45;96177.81;;;21.48;98.13
52441;BME280;39611;46.062;8.950;2023-05-22T15:25:11;96180.69;;;21.40;90.41
52441;BME280;39611;46.062;8.950;2023-05-22T15:27:40;96176.94;;;21.44;88.33
52441;BME280;39611;46.062;8.950;2023-05-22T15:30:07;96183.47;;;21.43;80.46
52441;BME280;39611;46.062;8.950;2023-05-22T15:32:37;96175.81;;;21.45;77.74
52441;BME280;39611;46.062;8.950;2023-05-22T15:35:05;96180.22;;;21.37;76.84
52441;BME280;39611;46.062;8.950;2023-05-22T15:37:32;96180.06;;;21.46;72.49
52441;BME280;39611;46.062;8.950;2023-05-22T15:40:03;96175.28;;;21.40;78.23
52441;BME280;39611;46.062;8.950;2023-05-22T15:42:29;96170.00;;;21.43;80.36
52441;BME280;39611;46.062;8.950;2023-05-22T15:44:57;96168.31;;;21.54;76.31
52441;BME280;39611;46.062;8.950;2023-05-22T15:47:24;96167.56;;;21.54;73.38
52441;BME280;39611;46.062;8.950;2023-05-22T15:49:50;96165.91;;;21.49;76.04
52441;BME280;39611;46.062;8.950;2023-05-22T15:52:17;96169.75;;;21.48;77.42
52441;BME280;39611;46.062;8.950;2023-05-22T15:54:44;96163.16;;;21.46;72.84
52441;BME280;39611;46.062;8.950;2023-05-22T15:57:10;96167.31;;;21.43;73.32
52441;BME280;39611;46.062;8.950;2023-05-22T15:59:37;96165.03;;;21.45;74.68
52441;BME280;39611;46.062;8.950;2023-05-22T16:02:03;96163.50;;;21.44;72.42
52441;BME280;39611;46.062;8.950;2023-05-22T16:04:30;96159.38;;;21.50;67.64
52441;BME280;39611;46.062;8.950;2023-05-22T16:06:56;96159.97;;;21.59;62.29
52441;BME280;39611;46.062;8.950;2023-05-22T16:09:23;96164.09;;;21.53;62.39
52441;BME280;39611;46.062;8.950;2023-05-22T16:11:50;96165.38;;;21.59;65.53
52441;BME280;39611;46.062;8.950;2023-05-22T16:14:16;96160.25;;;21.54;70.78
52441;BME280;39611;46.062;8.950;2023-05-22T16:16:42;96161.47;;;21.57;74.86
52441;BME280;39611;46.062;8.950;2023-05-22T16:19:09;96161.47;;;21.57;77.40
52441;BME280;39611;46.062;8.950;2023-05-22T16:21:37;96162.25;;;21.57;78.92
52441;BME280;39611;46.062;8.950;2023-05-22T16:24:03;96163.81;;;21.58;74.88
52441;BME280;39611;46.062;8.950;2023-05-22T16:26:31;96154.59;;;21.59;77.96
52441;BME280;39611;46.062;8.950;2023-05-22T16:28:58;96160.84;;;21.64;78.58
52441;BME280;39611;46.062;8.950;2023-05-22T16:31:24;96159.00;;;21.68;78.61
52441;BME280;39611;46.062;8.950;2023-05-22T16:33:51;96153.34;;;21.73;74.93
52441;BME280;39611;46.062;8.950;2023-05-22T16:36:18;96156.91;;;21.77;74.29
52441;BME280;39611;46.062;8.950;2023-05-22T16:38:44;96143.72;;;21.72;76.92
52441;BME280;39611;46.062;8.950;2023-05-22T16:41:11;96151.78;;;21.72;78.66
52441;BME280;39611;46.062;8.950;2023-05-22T16:43:37;96151.78;;;21.72;78.51
52441;BME280;39611;46.062;8.950;2023-05-22T16:46:04;96149.72;;;21.65;85.53
52441;BME280;39611;46.062;8.950;2023-05-22T16:48:30;96161.19;;;21.62;79.09
52441;BME280;39611;46.062;8.950;2023-05-22T16:50:56;96156.16;;;21.60;76.85
52441;BME280;39611;46.062;8.950;2023-05-22T16:53:23;96154.16;;;21.57;76.40
52441;BME280;39611;46.062;8.950;2023-05-22T16:55:49;96154.00;;;21.50;85.05
52441;BME280;39611;46.062;8.950;2023-05-22T16:58:16;96151.50;;;21.42;84.53
52441;BME280;39611;46.062;8.950;2023-05-22T17:00:43;96145.53;;;21.32;93.66
52441;BME280;39611;46.062;8.950;2023-05-22T17:03:09;96152.28;;;21.26;91.79
52441;BME280;39611;46.062;8.950;2023-05-22T17:05:37;96159.09;;;21.20;92.67
52441;BME280;39611;46.062;8.950;2023-05-22T17:08:04;96157.44;;;21.15;92.88
52441;BME280;39611;46.062;8.950;2023-05-22T17:10:31;96165.44;;;21.12;88.76
52441;BME280;39611;46.062;8.950;2023-05-22T17:12:58;96162.19;;;21.06;94.54
52441;BME280;39611;46.062;8.950;2023-05-22T17:15:24;96163.59;;;21.00;91.89
52441;BME280;39611;46.062;8.950;2023-05-22T17:17:50;96170.13;;;20.99;89.85
52441;BME280;39611;46.062;8.950;2023-05-22T17:20:19;96171.59;;;20.97;92.67
52441;BME280;39611;46.062;8.950;2023-05-22T17:22:48;96181.81;;;20.91;93.89
52441;BME280;39611;46.062;8.950;2023-05-22T17:25:15;96186.75;;;20.89;94.59
52441;BME280;39611;46.062;8.950;2023-05-22T17:27:42;96191.25;;;20.85;100.00
52441;BME280;39611;46.062;8.950;2023-05-22T17:30:08;96190.47;;;20.84;99.03
52441;BME280;39611;46.062;8.950;2023-05-22T17:32:36;96197.34;;;20.82;93.91
52441;BME280;39611;46.062;8.950;2023-05-22T17:35:03;96194.31;;;20.83;100.00
52441;BME280;39611;46.062;8.950;2023-05-22T17:37:32;96197.78;;;20.84;100.00
52441;BME280;39611;46.062;8.950;2023-05-22T17:39:58;96191.94;;;20.82;100.00
52441;BME280;39611;46.062;8.950;2023-05-22T17:42:24;96196.88;;;20.80;100.00
52441;BME280;39611;46.062;8.950;2023-05-22T17:44:51;96192.66;;;20.79;100.00
52441;BME280;39611;46.062;8.950;2023-05-22T17:47:17;96197.41;;;20.69;100.00
52441;BME280;39611;46.062;8.950;2023-05-22T17:49:44;96193.94;;;20.69;100.00
52441;BME280;39611;46.062;8.950;2023-05-22T17:52:10;96197.56;;;20.61;100.00
52441;BME280;39611;46.062;8.950;2023-05-22T17:54:38;96200.50;;;20.56;100.00
52441;BME280;39611;46.062;8.950;2023-05-22T17:57:04;96204.19;;;20.51;100.00
52441;BME280;39611;46.062;8.950;2023-05-22T17:59:31;96203.97;;;20.44;100.00
52441;BME280;39611;46.062;8.950;2023-05-22T18:01:58;96197.75;;;20.40;100.00
52441;BME280;39611;46.062;8.950;2023-05-22T18:04:25;96199.91;;;20.34;100.00
52441;BME280;39611;46.062;8.950;2023-05-22T18:06:51;96202.03;;;20.28;100.00
52441;BME280;39611;46.062;8.950;2023-05-22T18:09:18;96205.06;;;20.27;99.76
52441;BME280;39611;46.062;8.950;2023-05-22T18:11:44;96203.50;;;20.26;100.00
52441;BME280;39611;46.062;8.950;2023-05-22T18:14:11;96205.66;;;20.20;100.00
52441;BME280;39611;46.062;8.950;2023-05-22T18:16:37;96201.22;;;20.12;100.00
52441;BME280;39611;46.062;8.950;2023-05-22T18:19:04;96204.13;;;20.07;100.00
52441;BME280;39611;46.062;8.950;2023-05-22T18:21:30;96209.28;;;20.00;100.00
52441;BME280;39611;46.062;8.950;2023-05-22T18:23:57;96219.16;;;19.96;100.00
52441;BME280;39611;46.062;8.950;2023-05-22T18:26:24;96220.94;;;19.92;100.00
52441;BME280;39611;46.062;8.950;2023-05-22T18:28:51;96220.94;;;19.92;100.00
52441;BME280;39611;46.062;8.950;2023-05-22T18:31:18;96225.44;;;19.88;100.00
52441;BME280;39611;46.062;8.950;2023-05-22T18:33:45;96218.63;;;19.78;100.00
52441;BME280;39611;46.062;8.950;2023-05-22T18:36:12;96223.00;;;19.70;100.00
52441;BME280;39611;46.062;8.950;2023-05-22T18:38:38;96222.44;;;19.64;100.00
52441;BME280;39611;46.062;8.950;2023-05-22T18:41:05;96232.94;;;19.57;100.00
52441;BME280;39611;46.062;8.950;2023-05-22T18:43:31;96226.66;;;19.53;100.00
52441;BME280;39611;46.062;8.950;2023-05-22T18:45:58;96235.75;;;19.49;100.00
52441;BME280;39611;46.062;8.950;2023-05-22T18:48:24;96234.38;;;19.42;100.00
52441;BME280;39611;46.062;8.950;2023-05-22T18:50:52;96244.47;;;19.33;100.00
52441;BME280;39611;46.062;8.950;2023-05-22T18:53:20;96238.41;;;19.24;100.00
52441;BME280;39611;46.062;8.950;2023-05-22T18:55:47;96249.13;;;19.12;100.00
52441;BME280;39611;46.062;8.950;2023-05-22T18:58:14;96248.91;;;19.05;100.00
52441;BME280;39611;46.062;8.950;2023-05-22T19:00:40;96259.06;;;18.99;100.00
52441;BME280;39611;46.062;8.950;2023-05-22T19:03:07;96260.38;;;18.93;100.00
52441;BME280;39611;46.062;8.950;2023-05-22T19:05:36;96264.03;;;18.88;100.00
52441;BME280;39611;46.062;8.950;2023-05-22T19:08:03;96267.94;;;18.79;100.00
52441;BME280;39611;46.062;8.950;2023-05-22T19:10:30;96277.53;;;18.80;100.00
52441;BME280;39611;46.062;8.950;2023-05-22T19:12:56;96273.34;;;18.70;100.00
52441;BME280;39611;46.062;8.950;2023-05-22T19:15:23;96277.03;;;18.65;100.00
52441;BME280;39611;46.062;8.950;2023-05-22T19:17:50;96277.78;;;18.66;100.00
52441;BME280;39611;46.062;8.950;2023-05-22T19:20:17;96280.59;;;18.69;100.00
52441;BME280;39611;46.062;8.950;2023-05-22T19:22:44;96288.31;;;18.71;100.00
52441;BME280;39611;46.062;8.950;2023-05-22T19:25:10;96288.75;;;18.73;100.00
52441;BME280;39611;46.062;8.950;2023-05-22T19:27:36;96295.50;;;18.79;100.00
52441;BME280;39611;46.062;8.950;2023-05-22T19:30:05;96298.19;;;18.79;100.00
52441;BME280;39611;46.062;8.950;2023-05-22T19:32:32;96300.88;;;18.79;100.00
52441;BME280;39611;46.062;8.950;2023-05-22T19:34:59;96306.91;;;18.76;100.00
52441;BME280;39611;46.062;8.950;2023-05-22T19:37:25;96316.81;;;18.75;100.00
52441;BME280;39611;46.062;8.950;2023-05-22T19:39:52;96318.22;;;18.73;100.00
52441;BME280;39611;46.062;8.950;2023-05-22T19:42:19;96326.03;;;18.66;100.00
52441;BME280;39611;46.062;8.950;2023-05-22T19:44:45;96326.22;;;18.61;100.00
52441;BME280;39611;46.062;8.950;2023-05-22T19:47:12;96335.69;;;18.58;100.00
52441;BME280;39611;46.062;8.950;2023-05-22T19:49:39;96336.00;;;18.56;100.00
52441;BME280;39611;46.062;8.950;2023-05-22T19:52:05;96335.75;;;18.49;100.00
52441;BME280;39611;46.062;8.950;2023-05-22T19:54:33;96347.88;;;18.47;100.00
52441;BME280;39611;46.062;8.950;2023-05-22T19:57:01;96348.56;;;18.44;100.00
52441;BME280;39611;46.062;8.950;2023-05-22T19:59:28;96350.00;;;18.41;100.00
52441;BME280;39611;46.062;8.950;2023-05-22T20:01:54;96356.47;;;18.40;100.00
52441;BME280;39611;46.062;8.950;2023-05-22T20:04:21;96351.63;;;18.33;100.00
52441;BME280;39611;46.062;8.950;2023-05-22T20:06:48;96352.16;;;18.27;100.00
52441;BME280;39611;46.062;8.950;2023-05-22T20:09:15;96353.00;;;18.19;100.00
52441;BME280;39611;46.062;8.950;2023-05-22T20:11:41;96355.19;;;18.17;100.00
52441;BME280;39611;46.062;8.950;2023-05-22T20:14:10;96356.63;;;18.14;100.00
52441;BME280;39611;46.062;8.950;2023-05-22T20:16:37;96366.56;;;18.14;100.00
52441;BME280;39611;46.062;8.950;2023-05-22T20:19:03;96368.44;;;18.13;100.00
52441;BME280;39611;46.062;8.950;2023-05-22T20:21:30;96373.19;;;18.07;100.00
52441;BME280;39611;46.062;8.950;2023-05-22T20:23:57;96367.84;;;18.07;100.00
52441;BME280;39611;46.062;8.950;2023-05-22T20:26:24;96375.41;;;18.05;100.00
52441;BME280;39611;46.062;8.950;2023-05-22T20:28:51;96376.06;;;18.02;100.00